Time;durP1;ratioP1;P1;durP2;ratioP2;P2;SDS_P1;SDS_P2;PMS_P1;PMS_P2;Temp;Humidity;BMP_temperature;BMP_pressure;BME280_temperature;BME280_humidity;BME280_pressure;Samples;Min_cycle;Max_cycle;Signal;HPM_P1;HPM_P2
2021/07/03 00:03:05;;;;;;;3.47;2.83;;;20.10;70.40;;;;;;20735550;28;20041;-78
2021/07/03 00:13:05;;;;;;;3.65;2.63;;;20.10;70.40;;;;;;20733024;28;20297;-78
2021/07/03 00:23:06;;;;;;;4.20;2.75;;;20.00;70.20;;;;;;20732072;28;20041;-80
2021/07/03 00:33:06;;;;;;;3.33;2.50;;;20.00;70.20;;;;;;20748004;28;20042;-79
2021/07/03 00:43:07;;;;;;;4.05;2.58;;;20.00;70.10;;;;;;20730667;28;20145;-80
2021/07/03 00:53:09;;;;;;;3.45;2.45;;;20.00;70.00;;;;;;20730929;28;20038;-79
2021/07/03 01:03:11;;;;;;;2.80;2.38;;;20.00;70.00;;;;;;20713154;28;20045;-80
2021/07/03 01:13:12;;;;;;;2.85;2.03;;;20.00;69.90;;;;;;20712851;28;20038;-80
2021/07/03 01:23:14;;;;;;;3.55;2.60;;;20.00;69.90;;;;;;20727172;28;20438;-80
2021/07/03 01:33:15;;;;;;;3.75;2.75;;;20.00;69.80;;;;;;20727345;28;20184;-79
2021/07/03 01:43:23;;;;;;;3.13;2.33;;;20.00;69.80;;;;;;20726133;28;20059;-79
2021/07/03 01:53:26;;;;;;;3.70;2.33;;;19.90;69.70;;;;;;20725642;28;20484;-79
2021/07/03 02:03:27;;;;;;;3.63;2.85;;;19.90;69.60;;;;;;20723403;28;20508;-78
2021/07/03 02:13:29;;;;;;;3.75;2.38;;;19.90;69.60;;;;;;20724205;28;20030;-79
2021/07/03 02:23:31;;;;;;;3.08;2.15;;;19.90;69.60;;;;;;20723845;28;20041;-80
2021/07/03 02:33:34;;;;;;;2.58;1.92;;;19.90;69.50;;;;;;20722757;28;20045;-80
2021/07/03 02:43:37;;;;;;;2.72;2.00;;;19.90;69.40;;;;;;20722422;28;20038;-80
2021/07/03 02:53:43;;;;;;;3.35;2.03;;;19.90;69.40;;;;;;20706884;28;20531;-80
2021/07/03 03:03:44;;;;;;;2.55;2.05;;;19.90;69.40;;;;;;20723252;28;20034;-79
2021/07/03 03:13:47;;;;;;;4.10;2.30;;;19.80;69.20;;;;;;20737111;28;20101;-79
2021/07/03 03:23:50;;;;;;;2.50;2.30;;;19.80;69.20;;;;;;20721614;28;20040;-80
2021/07/03 03:33:51;;;;;;;3.00;1.98;;;19.80;69.10;;;;;;20735854;28;20599;-80
2021/07/03 03:43:53;;;;;;;2.75;2.03;;;19.80;69.00;;;;;;20736235;28;20041;-79
2021/07/03 03:53:57;;;;;;;3.10;1.98;;;19.80;69.00;;;;;;20734423;28;20041;-80
2021/07/03 04:03:58;;;;;;;3.80;2.92;;;19.80;68.90;;;;;;20733830;28;20391;-77
2021/07/03 04:13:59;;;;;;;2.67;2.08;;;19.80;68.90;;;;;;20733557;28;20457;-78
2021/07/03 04:24:00;;;;;;;3.70;2.57;;;19.80;68.90;;;;;;20732229;28;20091;-78
2021/07/03 04:34:00;;;;;;;4.65;2.85;;;19.80;69.00;;;;;;20731269;28;20419;-78
2021/07/03 04:44:01;;;;;;;5.70;3.50;;;19.80;69.00;;;;;;20731206;28;20040;-77
2021/07/03 04:54:02;;;;;;;4.57;3.25;;;19.80;69.10;;;;;;20730936;28;20038;-77
2021/07/03 05:04:03;;;;;;;7.45;3.30;;;19.80;69.10;;;;;;20728994;28;20030;-77
2021/07/03 05:14:03;;;;;;;5.00;3.72;;;19.80;69.10;;;;;;20728641;28;20038;-77
2021/07/03 05:24:04;;;;;;;5.32;4.05;;;19.80;69.10;;;;;;20711285;28;20120;-77
2021/07/03 05:34:05;;;;;;;4.75;3.30;;;19.80;69.10;;;;;;20727929;28;20116;-77
2021/07/03 05:44:06;;;;;;;4.68;3.40;;;19.80;69.10;;;;;;20726622;28;20105;-79
2021/07/03 05:54:07;;;;;;;5.17;4.00;;;19.80;69.20;;;;;;20725115;28;20141;-77
2021/07/03 06:04:07;;;;;;;4.85;3.92;;;19.80;69.20;;;;;;20725182;28;20782;-78
2021/07/03 06:14:08;;;;;;;5.32;3.88;;;19.80;69.20;;;;;;20740445;28;20038;-78
2021/07/03 06:24:10;;;;;;;5.35;4.18;;;19.80;69.20;;;;;;20723736;28;20046;-79
2021/07/03 06:34:10;;;;;;;5.07;4.05;;;19.80;69.20;;;;;;20706770;28;20034;-76
2021/07/03 06:44:11;;;;;;;5.20;3.38;;;19.90;69.30;;;;;;20722679;28;20141;-79
2021/07/03 06:54:12;;;;;;;6.45;4.85;;;19.80;69.30;;;;;;20706974;28;20643;-78
2021/07/03 07:04:13;;;;;;;11.57;5.00;;;19.90;69.30;;;;;;20702776;28;20030;-75
2021/07/03 07:14:14;;;;;;;8.90;4.30;;;19.90;69.30;;;;;;20718434;28;20038;-75
2021/07/03 07:24:15;;;;;;;5.80;4.60;;;19.90;69.30;;;;;;20734071;28;20056;-77
2021/07/03 07:34:16;;;;;;;7.80;4.73;;;20.00;69.40;;;;;;20717368;28;20069;-79
2021/07/03 07:44:18;;;;;;;6.53;4.50;;;20.00;69.50;;;;;;20733401;28;20404;-78
2021/07/03 07:54:19;;;;;;;6.70;4.22;;;20.00;69.40;;;;;;20717852;28;20040;-76
2021/07/03 08:04:20;;;;;;;8.80;5.05;;;20.00;69.50;;;;;;20754965;28;20480;-75
2021/07/03 08:14:37;;;;;;;7.63;5.10;;;20.00;69.50;;;;;;20710514;28;20814;-76
2021/07/03 08:24:39;;;;;;;7.90;5.90;;;20.10;69.60;;;;;;20751796;28;20081;-76
2021/07/03 08:34:40;;;;;;;8.37;6.23;;;20.10;69.80;;;;;;20733418;28;20072;-76
2021/07/03 08:44:46;;;;;;;8.90;5.50;;;20.20;70.10;;;;;;20698389;28;20779;-75
2021/07/03 08:55:21;;;;;;;10.00;5.68;;;20.10;70.10;;;;;;20706403;28;20368;-75
2021/07/03 09:05:24;;;;;;;8.48;6.00;;;20.20;70.10;;;;;;20739062;28;20496;-75
2021/07/03 09:15:25;;;;;;;8.85;5.75;;;20.20;70.00;;;;;;20695546;28;20444;-75
2021/07/03 09:25:27;;;;;;;7.95;6.07;;;20.20;70.10;;;;;;21102676;23;20085;-77
2021/07/03 09:35:28;;;;;;;9.85;6.13;;;20.20;70.10;;;;;;20703391;28;20049;-78
2021/07/03 09:45:30;;;;;;;8.10;6.17;;;20.10;70.10;;;;;;20772792;28;20033;-75
2021/07/03 09:55:32;;;;;;;13.10;6.68;;;20.20;70.10;;;;;;20728532;28;20308;-77
2021/07/03 10:05:34;;;;;;;8.57;5.32;;;20.20;70.10;;;;;;20698114;28;20042;-76
2021/07/03 10:15:35;;;;;;;8.02;6.10;;;20.10;70.10;;;;;;20681508;28;20096;-82
2021/07/03 10:25:44;;;;;;;7.65;5.35;;;20.20;70.20;;;;;;20695636;28;20480;-79
2021/07/03 10:35:58;;;;;;;6.10;4.63;;;20.20;70.10;;;;;;20695850;28;20078;-77
2021/07/03 10:45:59;;;;;;;8.60;4.68;;;20.20;69.70;;;;;;20725291;28;20029;-76
2021/07/03 10:56:14;;;;;;;5.60;4.28;;;20.20;69.60;;;;;;20707029;28;20507;-77
2021/07/03 11:06:19;;;;;;;5.13;3.88;;;20.30;69.50;;;;;;20691470;28;20357;-79
2021/07/03 11:16:20;;;;;;;4.68;3.55;;;20.20;69.30;;;;;;20705812;28;20700;-80
2021/07/03 11:26:23;;;;;;;8.48;4.40;;;20.30;69.30;;;;;;20674614;28;20077;-78
2021/07/03 11:36:24;;;;;;;6.38;3.90;;;20.30;69.10;;;;;;20688325;28;20503;-79
2021/07/03 11:46:24;;;;;;;9.05;3.40;;;20.30;69.00;;;;;;20638228;28;20129;-77
2021/07/03 11:56:25;;;;;;;5.65;4.22;;;20.40;68.70;;;;;;20701041;28;20484;-72
2021/07/03 12:06:27;;;;;;;5.78;4.03;;;20.40;68.70;;;;;;20733158;28;20034;-76
2021/07/03 12:16:29;;;;;;;5.97;3.97;;;20.50;68.90;;;;;;20705022;28;20026;-75
2021/07/03 12:26:38;;;;;;;5.75;3.50;;;20.50;68.80;;;;;;20777235;28;20501;-76
2021/07/03 12:36:42;;;;;;;7.57;4.40;;;20.50;68.70;;;;;;20796916;28;20068;-76
2021/07/03 12:46:42;;;;;;;5.95;3.60;;;20.50;68.50;;;;;;20723074;28;20433;-76
2021/07/03 12:56:43;;;;;;;4.50;3.17;;;20.60;68.40;;;;;;20696026;28;20034;-75
2021/07/03 13:06:48;;;;;;;5.57;3.75;;;20.60;68.20;;;;;;20699204;28;20034;-76
2021/07/03 13:16:48;;;;;;;4.87;3.37;;;20.60;67.90;;;;;;20698394;28;20464;-75
2021/07/03 13:26:49;;;;;;;5.40;3.08;;;20.70;67.90;;;;;;20729840;28;20069;-74
2021/07/03 13:36:49;;;;;;;5.25;3.03;;;20.70;67.80;;;;;;20696710;28;20045;-74
2021/07/03 13:46:50;;;;;;;4.38;2.95;;;20.70;67.60;;;;;;20712013;28;20445;-77
2021/07/03 13:56:51;;;;;;;5.75;2.80;;;20.70;67.10;;;;;;20695162;28;20069;-75
2021/07/03 14:06:51;;;;;;;5.55;3.60;;;20.80;67.10;;;;;;20693478;28;20415;-78
2021/07/03 14:16:52;;;;;;;8.77;2.53;;;20.90;67.00;;;;;;20710158;28;20503;-74
2021/07/03 14:26:52;;;;;;;4.63;3.23;;;20.90;66.90;;;;;;20677894;28;20065;-74
2021/07/03 14:36:53;;;;;;;3.43;2.63;;;21.00;66.80;;;;;;20708104;28;20030;-76
2021/07/03 14:46:54;;;;;;;5.53;2.70;;;21.10;66.80;;;;;;20707639;28;20320;-75
2021/07/03 14:56:55;;;;;;;5.78;2.38;;;21.20;66.80;;;;;;20691593;28;20069;-75
2021/07/03 15:06:55;;;;;;;3.53;2.72;;;21.20;66.70;;;;;;20691387;28;20121;-76
2021/07/03 15:16:56;;;;;;;3.70;2.65;;;21.40;66.70;;;;;;20702451;28;20073;-76
2021/07/03 15:26:56;;;;;;;4.53;2.97;;;21.30;66.50;;;;;;20690039;28;20052;-76
2021/07/03 15:36:58;;;;;;;3.47;2.63;;;21.40;66.30;;;;;;20721800;28;20088;-76
2021/07/03 15:46:59;;;;;;;3.72;2.47;;;21.50;66.20;;;;;;20720954;28;20052;-77
2021/07/03 15:57:00;;;;;;;2.78;1.92;;;21.50;66.20;;;;;;20720633;28;20476;-77
2021/07/03 16:07:01;;;;;;;3.03;2.30;;;21.50;66.20;;;;;;20753577;28;20042;-77
2021/07/03 16:17:03;;;;;;;2.85;2.20;;;21.60;66.10;;;;;;20702723;28;20033;-78
2021/07/03 16:27:07;;;;;;;;;;;21.70;66.00;;;;;;20718055;28;20488;-75
2021/07/03 16:37:07;;;;;;;3.05;2.20;;;21.80;65.90;;;;;;20755148;28;19959;-78
2021/07/03 16:47:08;;;;;;;3.42;2.28;;;21.80;65.70;;;;;;20714056;28;20021;-79
2021/07/03 16:57:10;;;;;;;4.18;2.20;;;21.90;65.60;;;;;;20732424;28;20123;-78
2021/07/03 17:07:11;;;;;;;4.32;2.20;;;22.00;65.50;;;;;;20702857;28;20484;-80
2021/07/03 17:17:12;;;;;;;3.60;2.25;;;21.90;65.40;;;;;;20731756;28;20042;-80
2021/07/03 17:27:14;;;;;;;3.88;2.42;;;22.00;65.50;;;;;;20729572;28;20053;-81
2021/07/03 17:37:14;;;;;;;2.65;2.20;;;21.90;65.50;;;;;;20744210;28;20025;-79
2021/07/03 17:47:15;;;;;;;2.92;2.08;;;21.90;65.40;;;;;;20694652;28;20133;-81
2021/07/03 17:57:16;;;;;;;2.30;1.83;;;22.00;65.40;;;;;;20694941;28;20045;-81
2021/07/03 18:07:16;;;;;;;3.17;2.15;;;21.90;65.30;;;;;;20694774;28;20304;-83
2021/07/03 18:17:17;;;;;;;4.00;1.90;;;21.90;65.30;;;;;;20728804;28;20064;-83
2021/07/03 18:27:19;;;;;;;2.80;2.00;;;22.00;65.40;;;;;;20729005;28;20052;-83
2021/07/03 18:37:20;;;;;;;2.50;2.15;;;21.90;65.50;;;;;;20706150;28;20057;-81
2021/07/03 18:47:22;;;;;;;2.85;2.00;;;21.80;65.60;;;;;;20692837;28;20116;-85
2021/07/03 18:57:22;;;;;;;2.80;1.98;;;21.70;65.90;;;;;;20675376;28;20064;-80
2021/07/03 19:07:23;;;;;;;3.40;2.03;;;21.70;66.10;;;;;;20707759;28;20365;-82
2021/07/03 19:17:24;;;;;;;3.22;2.10;;;21.60;66.20;;;;;;20724091;28;20029;-82
2021/07/03 19:27:24;;;;;;;2.78;2.17;;;21.60;66.50;;;;;;20692950;28;20076;-82
2021/07/03 19:37:26;;;;;;;2.70;2.20;;;21.50;66.60;;;;;;20717552;28;20053;-80
2021/07/03 19:47:27;;;;;;;2.45;1.75;;;21.50;66.70;;;;;;20725123;28;20030;-79
2021/07/03 19:57:35;;;;;;;2.70;2.15;;;21.50;66.90;;;;;;20726400;28;20041;-79
2021/07/03 20:07:36;;;;;;;3.20;2.13;;;21.40;67.10;;;;;;20723293;28;20030;-80
2021/07/03 20:17:39;;;;;;;3.05;2.15;;;21.40;67.20;;;;;;20706030;28;20133;-81
2021/07/03 20:27:41;;;;;;;2.47;1.90;;;21.40;67.30;;;;;;20721500;28;20045;-81
2021/07/03 20:37:42;;;;;;;2.28;2.08;;;21.40;67.50;;;;;;20704087;28;20474;-83
2021/07/03 20:47:43;;;;;;;2.35;1.92;;;21.30;67.60;;;;;;20719917;28;20150;-80
2021/07/03 20:57:44;;;;;;;3.42;2.08;;;21.30;67.70;;;;;;20719980;28;20092;-79
2021/07/03 21:07:46;;;;;;;2.38;1.98;;;21.30;67.80;;;;;;20705663;28;20030;-80
2021/07/03 21:17:47;;;;;;;2.95;2.00;;;21.30;67.90;;;;;;20720171;28;20095;-79
2021/07/03 21:27:48;;;;;;;2.83;2.10;;;21.30;68.00;;;;;;20704015;28;20469;-81
2021/07/03 21:37:49;;;;;;;3.67;2.20;;;21.20;67.90;;;;;;20703113;28;20038;-79
2021/07/03 21:47:50;;;;;;;2.38;1.73;;;21.20;68.70;;;;;;20718440;28;20087;-80
2021/07/03 21:57:51;;;;;;;2.83;1.97;;;21.20;68.10;;;;;;20685775;28;20421;-80
2021/07/03 22:07:54;;;;;;;3.20;2.30;;;21.20;68.10;;;;;;20717538;28;20498;-82
2021/07/03 22:17:54;;;;;;;3.67;2.63;;;21.20;68.20;;;;;;20683981;28;20041;-82
2021/07/03 22:27:58;;;;;;;3.50;2.50;;;21.10;68.10;;;;;;20714558;28;20049;-80
2021/07/03 22:37:59;;;;;;;3.50;2.45;;;21.10;68.20;;;;;;20683818;28;20052;-79
2021/07/03 22:48:01;;;;;;;3.15;2.50;;;21.10;68.20;;;;;;20714818;28;20121;-80
2021/07/03 22:58:02;;;;;;;4.05;2.80;;;21.10;68.20;;;;;;20698476;28;20040;-80
2021/07/03 23:08:04;;;;;;;2.78;2.22;;;21.10;68.20;;;;;;20682132;28;20132;-80
2021/07/03 23:18:07;;;;;;;2.97;2.40;;;21.10;68.20;;;;;;20697388;28;20437;-80
2021/07/03 23:28:09;;;;;;;2.67;2.22;;;21.10;68.20;;;;;;20697872;28;20196;-80
2021/07/03 23:38:09;;;;;;;4.85;2.90;;;21.10;68.20;;;;;;20690836;28;20041;-80
2021/07/03 23:48:10;;;;;;;2.83;2.33;;;21.00;68.20;;;;;;20726651;28;20037;-80
2021/07/03 23:58:11;;;;;;;4.28;3.65;;;21.00;68.20;;;;;;20695555;28;20465;-80
